Pagina principală
Imagini satelitare Vremea 15-zileClimăMare Cicloane Trăsnet AeroporturiÎntrebări Noutăţi Despre
Meteo : Europa Africa America de Nord America de Sud Asia Australia-Oceania Alte
Limbi Contact

Bucureşti-Băneasa, România

Aurel Vlaicu

Latitudine: 44-30N, Longitudine: 026-08E, Altitudine: 90 m


METAR: LRBS 211930Z 20003KT 170V240 CAVOK 03/M02 Q1024 R07/19//95 NOSIG
TAF: LRBS 211700Z 2118/2218 30010KT CAVOK PROB30 TEMPO 2200/2206 5000 BR

Oră: 22:05 (20:05 UTC)

observaţii meteorologice

Raportul a fost facut 35 minute în urmă, la 19:30 UTC
Vânt 3 kt de la Sud/Sud-Vest, variabil Sud si Vest/Sud-Vest
Temperatură 3°C
Umiditatea 70%
Presiune 1024 hPa
Vizibilitate 10 km sau mai mult
Vizibilitatea, norii şi fenomenele meteo actuale mai bune decât valorile sau condiţiile stabilite

Unităţile de măsură

Prognoză

Raportul a fost facut 3 ore si 5 minute în urmă, la 17:00 UTC
Prognoza valabil de 21 la ora 18 UTC până 22 la ora 18 UTC
Vânt 10 kt de la Vest/Nord-Vest
Vizibilitate 10 km sau mai mult
Vizibilitatea, norii şi fenomenele meteo actuale mai bune decât valorile sau condiţiile stabilite
Probabilitate 30% :
Temporar
de 22 la ora 00 UTC până 22 la ora 06 UTC
Vizibilitate: 5000 m
Aer ceţos
Informaţiile de pe acest site fac obiectul unei denegări de responsabilitate
Meteo : Europa Africa America de Nord America de Sud Asia Australia-Oceania Alte
Imagini satelitare Vremea 15-zileClimăMare Cicloane Trăsnet AeroporturiÎntrebări Limbi Contact Noutăţi Despre